Thursday, April 26, 2018, 5:35 AM EDT
Back to Local

KBID, Block Island, Block Island State Airport

Location: Block Island, RI, United States Lat: 41.167
Local Time: 5:35 AM EDT ( 9:35 GMT) Lon: -71.567
Time Zone: US/Eastern Elev: 108 ft

Show me the last for .
Show Decoded

2018-04-26 05:13 METAR KBID 260913Z AUTO 17007KT 1/2SM -RA FG OVC003 11/11 A2958 RMK AO2 P0000 =
2018-04-26 04:56 METAR KBID 260856Z AUTO 18005KT 3/4SM -RA BR OVC003 11/11 A2958 RMK AO2 SLP022
                 P0003 60009 T01110111 56015 =
2018-04-26 04:45 METAR KBID 260845Z AUTO 17006KT 3/4SM -RA BR OVC003 11/11 A2959 RMK AO2 P0003 =
2018-04-26 04:24 METAR KBID 260824Z AUTO 16007KT 1 1/4SM -RA BR OVC003 11/11 A2959 RMK AO2 P0002
                 =
2018-04-26 04:09 METAR KBID 260809Z AUTO 15003KT 1SM -RA BR OVC003 11/11 A2959 RMK AO2 P0001 =
2018-04-26 03:56 METAR KBID 260756Z AUTO 17005KT 3/4SM -RA BR OVC003 11/11 A2960 RMK AO2 RAB29
                 SLP027 P0000 T01060106 =
2018-04-26 03:39 METAR KBID 260739Z AUTO 16005KT 3/4SM -RA BR OVC003 11/11 A2960 RMK AO2 RAB29
                 P0000 =
2018-04-26 03:25 METAR KBID 260725Z AUTO 17006KT 1SM BR OVC003 10/10 A2960 RMK AO2 =
2018-04-26 03:10 METAR KBID 260710Z AUTO 15004KT 1/2SM FG OVC003 10/10 A2960 RMK AO2 =
2018-04-26 02:56 METAR KBID 260656Z AUTO 00000KT 3/4SM BR OVC003 10/10 A2961 RMK AO2 RAE30 SLP031
                 P0006 T01000100 =
2018-04-26 02:50 METAR KBID 260650Z AUTO 10005KT 1SM BR OVC003 10/10 A2961 RMK AO2 RAE30 CIG
                 002V006 P0006 =
2018-04-26 02:48 METAR KBID 260648Z AUTO 10005KT 1 1/2SM BR OVC005 11/11 A2962 RMK AO2 RAE30 CIG
                 002V006 P0006 =
2018-04-26 02:32 METAR KBID 260632Z AUTO 13004KT 10SM BKN005 OVC010 11/11 A2961 RMK AO2 RAE30
                 P0005 =
2018-04-26 01:56 METAR KBID 260556Z AUTO 21006KT 3SM -RA BR SCT003 OVC012 11/11 A2963 RMK AO2
                 RAB41 SLP038 P0005 60005 T01060106 10117 20106 56016 =
2018-04-26 01:54 METAR KBID 260554Z AUTO 19007KT 3SM -RA BR SCT003 BKN012 OVC018 11/11 A2963 RMK
                 AO2 RAB41 P0005 =
2018-04-26 01:51 METAR KBID 260551Z AUTO 19008KT 2SM RA BR BKN003 OVC014 11/11 A2963 RMK AO2
                 RAB41 P0004 =
2018-04-26 01:19 METAR KBID 260519Z AUTO 19009KT 1SM BR OVC003 11/11 A2964 RMK AO2 =
2018-04-26 01:02 METAR KBID 260502Z AUTO 19010KT 1 1/4SM BR OVC003 11/11 A2965 RMK AO2 =
2018-04-26 00:56 METAR KBID 260456Z AUTO 19011KT 3/4SM BR OVC003 11/11 A2965 RMK AO2 SLP046
                 T01110111 =
2018-04-26 00:13 METAR KBID 260413Z AUTO 19011KT 1/2SM FG OVC003 11/11 A2967 RMK AO2 =
2018-04-25 23:56 METAR KBID 260356Z AUTO 19010KT 1/4SM FG OVC003 11/11 A2968 RMK AO2 SLP053
                 T01060106 401170089 =
2018-04-25 23:33 METAR KBID 260333Z AUTO 18011KT 1/4SM FG OVC003 11/11 A2968 RMK AO2 =
2018-04-25 22:56 METAR KBID 260256Z AUTO 19013KT 1/2SM FG OVC003 11/11 A2969 RMK AO2 SLP058
                 T01110111 58013 =
2018-04-25 21:56 METAR KBID 260156Z AUTO 17011KT 1/2SM FG OVC003 12/12 A2971 RMK AO2 SLP064
                 T01170117 =
2018-04-25 21:47 METAR KBID 260147Z AUTO 17011KT 1/2SM FG OVC003 12/12 A2971 RMK AO2 =
2018-04-25 21:35 METAR KBID 260135Z AUTO 16012KT 3/4SM BR OVC003 12/12 A2971 RMK AO2 =
2018-04-25 20:56 METAR KBID 260056Z AUTO 15014KT 1/2SM FG OVC003 12/12 A2972 RMK AO2 SLP068
                 T01170117 =
2018-04-25 20:36 METAR KBID 260036Z AUTO 15015G21KT 1/2SM FG OVC003 12/12 A2972 RMK AO2 =
2018-04-25 20:18 METAR KBID 260018Z AUTO 16015G20KT 3/4SM BR OVC003 12/12 A2973 RMK AO2 =
2018-04-25 20:08 METAR KBID 260008Z AUTO 15013G21KT 1SM BR OVC003 11/11 A2973 RMK AO2 =
2018-04-25 19:56 METAR KBID 252356Z AUTO 15016G21KT 3/4SM BR OVC003 11/11 A2973 RMK AO2 RAE37
                 SLP071 P0000 60020 T01110111 10111 20100 55008 =
2018-04-25 19:52 METAR KBID 252352Z AUTO 15016G21KT 3/4SM BR OVC003 11/11 A2973 RMK AO2 RAE37
                 P0000 =
2018-04-25 19:36 METAR KBID 252336Z AUTO 15015G20KT 1 1/4SM -RA BR OVC003 11/11 A2972 RMK AO2 LTG
                 DSNT NW P0000 =
2018-04-25 19:31 METAR KBID 252331Z AUTO 16016G20KT 3/4SM -RA BR OVC003 11/11 A2972 RMK AO2 LTG
                 DSNT NW P0000 =
2018-04-25 18:56 METAR KBID 252256Z AUTO 15016KT 1/4SM -RA FG OVC003 11/11 A2972 RMK AO2 SLP068
                 P0000 T01110111 =
2018-04-25 18:41 METAR KBID 252241Z AUTO 16016KT 1/4SM FG OVC003 11/11 A2972 RMK AO2 RAE36 P0000
                 =
2018-04-25 18:33 METAR KBID 252233Z AUTO 16016G23KT 1/2SM -RA FG OVC003 11/11 A2973 RMK AO2 P0000
                 =
2018-04-25 17:56 METAR KBID 252156Z AUTO 15015KT 1/4SM -RA FG OVC003 10/10 A2975 RMK AO2 SLP079
                 P0001 T01000100 =
2018-04-25 17:28 METAR KBID 252128Z AUTO 15016G23KT 1/4SM -RA FG OVC003 10/10 A2976 RMK AO2 P0001
                 =
2018-04-25 17:21 METAR KBID 252121Z AUTO 15015KT 3/4SM -RA BR OVC003 10/10 A2976 RMK AO2 P0001 =
2018-04-25 16:56 METAR KBID 252056Z AUTO 15012KT 1/4SM -RA FG OVC003 10/10 A2977 RMK AO2 SLP085
                 P0002 60019 T01000100 56030 =
2018-04-25 16:30 METAR KBID 252030Z AUTO 16011KT 1/4SM -RA FG OVC003 10/10 A2978 RMK AO2 P0002 =
2018-04-25 16:23 METAR KBID 252023Z AUTO 16011KT 3/4SM -RA BR OVC003 10/10 A2979 RMK AO2 P0002 =
2018-04-25 16:19 METAR KBID 252019Z AUTO 16012KT 1 1/2SM -RA BR OVC003 10/10 A2979 RMK AO2 P0002
                 =
2018-04-25 15:56 METAR KBID 251956Z AUTO 14013G21KT 5SM -RA BR OVC003 10/10 A2979 RMK AO2 SLP093
                 P0002 T01000100 =
2018-04-25 14:56 METAR KBID 251856Z AUTO 12016G24KT 6SM -RA BR OVC003 11/11 A2982 RMK AO2 SLP101
                 P0015 T01060106 =
2018-04-25 14:41 METAR KBID 251841Z AUTO 12015G22KT 5SM -RA BR OVC003 11/11 A2983 RMK AO2 P0014 =
2018-04-25 14:23 METAR KBID 251823Z AUTO 11015G22KT 2SM RA BR OVC003 10/10 A2984 RMK AO2 P0009 =
2018-04-25 13:56 METAR KBID 251756Z AUTO 14021G26KT 4SM -RA BR OVC003 11/11 A2986 RMK AO2 PK WND
                 13026/1756 SLP115 P0004 60010 T01060106 10106 20094 56043 =
2018-04-25 13:46 METAR KBID 251746Z AUTO 13015G22KT 3SM -RA BR OVC003 11/11 A2986 RMK AO2 P0002 =
2018-04-25 13:39 METAR KBID 251739Z AUTO 12016G22KT 1 3/4SM -RA BR OVC003 11/11 A2987 RMK AO2
                 P0001 =
2018-04-25 13:08 METAR KBID 251708Z AUTO 12016G19KT 2 1/2SM -RA BR OVC003 10/10 A2989 RMK AO2
                 P0000 =
2018-04-25 12:56 METAR KBID 251656Z AUTO 12016G20KT 3SM -RA BR OVC003 10/10 A2989 RMK AO2 SLP128
                 P0004 T01000100 =
2018-04-25 11:56 METAR KBID 251556Z AUTO 12015G22KT 3SM -RA BR OVC003 10/10 A2994 RMK AO2 RAB09
                 SLP144 P0002 T01000100 =
2018-04-25 10:56 METAR KBID 251456Z AUTO 12015G25KT 4SM BR OVC003 10/10 A2998 RMK AO2 RAE26
                 SLP158 P0000 60000 T01000100 58024 =
2018-04-25 09:56 METAR KBID 251356Z AUTO 12015G21KT 3SM -RA BR BKN003 OVC010 10/10 A3001 RMK AO2
                 RAB56 SLP167 P0000 T01000100 =
2018-04-25 09:52 METAR KBID 251352Z AUTO 12015G21KT 4SM BR BKN003 BKN010 OVC017 10/10 A3001 RMK
                 AO2 =
2018-04-25 09:42 METAR KBID 251342Z AUTO 13015KT 5SM BR FEW005 BKN010 OVC019 10/10 A3002 RMK AO2
                 CIG 009V013 =
2018-04-25 08:56 METAR KBID 251256Z AUTO 13015KT 7SM BKN027 OVC032 10/10 A3004 RMK AO2 RAE49
                 SLP176 P0000 T01000100 =
2018-04-25 07:56 METAR KBID 251156Z AUTO 13016G24KT 8SM -RA BKN039 OVC047 09/09 A3006 RMK AO2
                 SLP183 P0002 60011 7//// T00940094 10100 20094 56016 =
2018-04-25 07:16 METAR KBID 251116Z AUTO 13015KT 8SM -RA SCT021 SCT030 OVC044 09/09 A3007 RMK AO2
                 P0001 =
2018-04-25 06:56 METAR KBID 251056Z AUTO 13016G21KT 10SM -RA OVC021 09/09 A3008 RMK AO2 SLP189
                 P0002 T00940089 =
2018-04-25 06:32 METAR KBID 251032Z AUTO 13014G20KT 9SM -RA FEW019 BKN026 OVC047 09/09 A3008 RMK
                 AO2 P0001 =
2018-04-25 05:56 METAR KBID 250956Z AUTO 14014G19KT 10SM -RA SCT034 SCT050 OVC060 09/09 A3008 RMK
                 AO2 SLP192 P0003 T00940089 =

Support USWX by starting your Amazon purchase here.